createdAt,value
2022-10-19T00:00:30.262Z,23.10
2022-10-19T00:03:05.742Z,23.30
2022-10-19T00:05:41.216Z,23.30
2022-10-19T00:08:16.459Z,23.50
2022-10-19T00:10:53.603Z,23.60
2022-10-19T00:13:28.810Z,23.80
2022-10-19T00:16:05.807Z,23.90
2022-10-19T00:18:47.086Z,24.00
2022-10-19T00:21:23.527Z,24.00
2022-10-19T00:23:58.667Z,24.10
2022-10-19T00:26:37.850Z,24.00
2022-10-19T00:29:14.347Z,24.10
2022-10-19T00:31:50.119Z,24.30
2022-10-19T00:34:26.509Z,24.30
2022-10-19T00:37:02.682Z,24.40
2022-10-19T00:39:37.872Z,24.30
2022-10-19T00:42:16.608Z,24.30
2022-10-19T00:45:12.407Z,24.40
2022-10-19T00:47:49.316Z,24.50
2022-10-19T00:50:27.941Z,24.40
2022-10-19T00:53:03.214Z,24.40
2022-10-19T00:55:39.123Z,24.40
2022-10-19T00:58:16.898Z,24.40
2022-10-19T01:00:52.336Z,24.40
2022-10-19T01:03:27.470Z,24.30
2022-10-19T01:06:06.270Z,24.10
2022-10-19T01:08:43.916Z,24.00
2022-10-19T01:11:31.294Z,24.00
2022-10-19T01:14:24.407Z,24.10
2022-10-19T01:17:05.280Z,24.30
2022-10-19T01:20:22.992Z,24.30
2022-10-19T01:23:15.841Z,24.20
2022-10-19T01:26:00.209Z,24.20
2022-10-19T01:28:49.982Z,24.20
2022-10-19T01:31:37.359Z,24.30
2022-10-19T01:34:18.024Z,24.30
2022-10-19T01:37:07.006Z,24.30
2022-10-19T01:39:49.840Z,24.40
2022-10-19T01:42:33.591Z,24.40
2022-10-19T01:45:16.384Z,24.30
2022-10-19T01:47:57.634Z,24.30
2022-10-19T01:50:36.547Z,24.30
2022-10-19T01:53:15.010Z,24.20
2022-10-19T01:55:55.698Z,24.20
2022-10-19T01:58:34.879Z,24.20
2022-10-19T02:01:13.391Z,24.30
2022-10-19T02:03:51.221Z,24.10
2022-10-19T02:06:30.098Z,24.00
2022-10-19T02:09:05.116Z,24.00
2022-10-19T02:11:44.141Z,24.00
2022-10-19T02:14:24.051Z,23.90
2022-10-19T02:17:02.511Z,23.90
2022-10-19T02:19:40.490Z,23.90
2022-10-19T02:22:16.508Z,24.00
2022-10-19T02:24:51.929Z,24.00
2022-10-19T02:27:27.552Z,24.10
2022-10-19T02:30:25.513Z,24.00
2022-10-19T02:33:01.037Z,24.00
2022-10-19T02:35:38.088Z,23.90
2022-10-19T02:38:15.910Z,23.90
2022-10-19T02:40:56.062Z,24.00
2022-10-19T02:43:32.943Z,23.90
2022-10-19T02:46:15.463Z,23.90
2022-10-19T02:48:51.597Z,23.90
2022-10-19T02:51:41.061Z,23.90
2022-10-19T02:54:16.611Z,23.80
2022-10-19T02:56:51.721Z,23.80
2022-10-19T02:59:27.058Z,23.60
2022-10-19T03:02:02.202Z,23.60
2022-10-19T03:04:37.792Z,23.70
2022-10-19T03:07:18.591Z,23.70
2022-10-19T03:09:53.955Z,23.70
2022-10-19T03:12:29.824Z,23.80
2022-10-19T03:15:06.798Z,23.80
2022-10-19T03:17:43.311Z,24.00
2022-10-19T03:20:19.682Z,23.90
2022-10-19T03:22:57.066Z,23.70
2022-10-19T03:25:33.548Z,23.60
2022-10-19T03:28:09.593Z,23.60
2022-10-19T03:30:44.982Z,23.70
2022-10-19T03:33:20.476Z,23.70
2022-10-19T03:35:56.020Z,23.70
2022-10-19T03:38:33.143Z,23.70
2022-10-19T03:41:11.414Z,23.60
2022-10-19T03:43:46.581Z,23.60
2022-10-19T03:46:21.720Z,23.60
2022-10-19T03:48:57.208Z,23.50
2022-10-19T03:51:34.128Z,23.40
2022-10-19T03:54:13.259Z,23.40
2022-10-19T03:56:48.307Z,23.40
2022-10-19T03:59:24.693Z,23.40
2022-10-19T04:01:59.928Z,23.20
2022-10-19T04:04:34.997Z,23.20
2022-10-19T04:07:10.133Z,23.20
2022-10-19T04:09:50.313Z,23.10
2022-10-19T04:12:25.589Z,23.10
2022-10-19T04:15:00.723Z,23.10
2022-10-19T04:17:37.256Z,23.10
2022-10-19T04:20:13.433Z,23.00
2022-10-19T04:22:49.883Z,23.10
2022-10-19T04:25:27.150Z,23.10
2022-10-19T04:28:02.751Z,23.00
2022-10-19T04:30:38.540Z,23.00
2022-10-19T04:33:14.123Z,22.90
2022-10-19T04:35:49.386Z,22.90
2022-10-19T04:38:24.720Z,22.90
2022-10-19T04:41:05.001Z,23.00
2022-10-19T04:43:40.399Z,22.90
2022-10-19T04:46:16.139Z,22.90
2022-10-19T04:48:52.250Z,22.90
2022-10-19T04:51:28.207Z,22.90
2022-10-19T04:54:04.834Z,22.90
2022-10-19T04:56:43.963Z,22.90
2022-10-19T04:59:18.977Z,22.90
2022-10-19T05:01:54.187Z,22.90
2022-10-19T05:04:29.444Z,22.90
2022-10-19T05:07:05.382Z,22.90
2022-10-19T05:09:42.083Z,22.80
2022-10-19T05:12:19.578Z,22.90
2022-10-19T05:14:55.428Z,22.80
2022-10-19T05:17:30.903Z,22.80
2022-10-19T05:20:06.429Z,22.80
2022-10-19T05:22:44.883Z,22.70
2022-10-19T05:25:20.126Z,22.80
2022-10-19T05:28:00.311Z,22.80
2022-10-19T05:30:36.562Z,22.70
2022-10-19T05:33:13.707Z,22.70
2022-10-19T05:35:48.933Z,22.60
2022-10-19T05:38:25.169Z,22.50
2022-10-19T05:41:00.514Z,22.50
2022-10-19T05:43:40.447Z,22.50
2022-10-19T05:46:17.427Z,22.50
2022-10-19T05:48:53.251Z,22.50
2022-10-19T05:51:30.037Z,22.50
2022-10-19T05:54:05.597Z,22.40
2022-10-19T05:56:40.717Z,22.40
2022-10-19T05:59:21.556Z,22.40
2022-10-19T06:01:56.571Z,22.30
2022-10-19T06:04:31.904Z,22.20
2022-10-19T06:07:07.505Z,22.20
2022-10-19T06:25:02.133Z,22.10
2022-10-19T06:31:22.837Z,22.20
2022-10-19T06:34:00.133Z,22.20
2022-10-19T06:36:36.900Z,22.20
2022-10-19T06:39:11.968Z,22.20
2022-10-19T06:41:47.013Z,22.10
2022-10-19T06:44:29.796Z,22.10
2022-10-19T06:47:07.648Z,22.10
2022-10-19T06:49:45.975Z,22.10
2022-10-19T06:52:21.172Z,22.10
2022-10-19T06:54:56.302Z,22.00
2022-10-19T06:57:32.161Z,22.00
2022-10-19T07:00:09.203Z,22.00
2022-10-19T07:02:46.146Z,22.00
2022-10-19T07:05:21.364Z,21.90
2022-10-19T07:07:56.431Z,21.80
2022-10-19T07:10:31.535Z,21.80
2022-10-19T07:13:06.736Z,21.80
2022-10-19T07:15:41.840Z,21.70
2022-10-19T07:21:01.462Z,21.50
2022-10-19T07:26:13.949Z,21.60
2022-10-19T07:28:51.201Z,21.70
2022-10-19T07:31:27.583Z,21.70
2022-10-19T07:34:07.495Z,21.70
2022-10-19T07:36:46.604Z,21.70
2022-10-19T07:39:22.677Z,21.70
2022-10-19T07:41:57.913Z,21.70
2022-10-19T07:44:33.592Z,21.70
2022-10-19T07:47:09.883Z,21.60
2022-10-19T07:49:47.198Z,21.60
2022-10-19T07:52:22.378Z,21.70
2022-10-19T07:54:58.131Z,21.70
2022-10-19T07:57:33.679Z,21.50
2022-10-19T08:00:09.396Z,21.40
2022-10-19T08:03:04.983Z,21.40
2022-10-19T08:05:43.772Z,21.50
2022-10-19T08:08:18.993Z,21.50
2022-10-19T08:10:54.468Z,21.60
2022-10-19T08:13:29.702Z,21.50
2022-10-19T08:16:05.583Z,21.60
2022-10-19T08:18:40.751Z,21.50
2022-10-19T08:21:17.792Z,21.50
2022-10-19T08:23:53.021Z,21.50
2022-10-19T08:26:28.329Z,21.40
2022-10-19T08:29:10.912Z,21.50
2022-10-19T08:31:48.757Z,21.50
2022-10-19T08:34:26.305Z,21.40
2022-10-19T08:39:56.298Z,21.40
2022-10-19T08:45:31.452Z,21.40
2022-10-19T08:50:51.962Z,21.30
2022-10-19T08:53:36.525Z,21.40
2022-10-19T08:56:49.823Z,21.40
2022-10-19T08:59:35.994Z,21.40
2022-10-19T09:02:19.859Z,21.30
2022-10-19T09:05:00.522Z,21.30
2022-10-19T09:07:39.139Z,21.30
2022-10-19T09:10:26.027Z,21.30
2022-10-19T09:13:05.741Z,21.40
2022-10-19T09:15:45.936Z,21.40
2022-10-19T09:18:29.422Z,21.30
2022-10-19T09:21:10.494Z,21.30
2022-10-19T09:23:49.217Z,21.30
2022-10-19T09:26:30.979Z,21.30
2022-10-19T09:29:11.312Z,21.30
2022-10-19T09:31:46.921Z,21.30
2022-10-19T23:56:20.793Z,22.10
2022-10-19T23:58:56.804Z,22.20
